createdAt,value
2019-03-13T00:01:23.744Z,27.10
2019-03-13T00:03:54.377Z,24.90
2019-03-13T00:06:25.177Z,24.43
2019-03-13T00:08:56.014Z,25.17
2019-03-13T00:11:26.515Z,21.68
2019-03-13T00:13:57.140Z,23.62
2019-03-13T00:16:27.815Z,24.27
2019-03-13T00:18:58.311Z,23.18
2019-03-13T00:21:28.583Z,24.00
2019-03-13T00:23:58.842Z,21.93
2019-03-13T00:26:29.111Z,20.57
2019-03-13T00:28:59.491Z,22.67
2019-03-13T00:31:30.425Z,23.38
2019-03-13T00:34:01.047Z,24.25
2019-03-13T00:36:32.330Z,22.98
2019-03-13T00:39:04.236Z,21.77
2019-03-13T00:41:35.526Z,22.55
2019-03-13T00:44:05.807Z,24.20
2019-03-13T00:46:36.409Z,23.67
2019-03-13T00:49:06.745Z,24.95
2019-03-13T00:51:37.263Z,25.70
2019-03-13T00:54:08.791Z,24.63
2019-03-13T00:56:39.478Z,23.50
2019-03-13T00:59:10.294Z,26.17
2019-03-13T01:01:54.457Z,26.52
2019-03-13T01:04:26.341Z,26.30
2019-03-13T01:06:58.683Z,27.00
2019-03-13T01:09:29.541Z,27.13
2019-03-13T01:12:00.447Z,26.75
2019-03-13T01:14:32.076Z,25.90
2019-03-13T01:17:04.643Z,25.88
2019-03-13T01:19:34.985Z,27.20
2019-03-13T01:22:06.115Z,26.95
2019-03-13T01:24:36.411Z,26.75
2019-03-13T01:27:06.665Z,24.67
2019-03-13T01:29:36.968Z,23.22
2019-03-13T01:32:15.134Z,26.02
2019-03-13T01:34:50.147Z,26.90
2019-03-13T01:37:20.457Z,26.65
2019-03-13T01:39:50.789Z,26.02
2019-03-13T01:42:21.384Z,26.70
2019-03-13T01:44:52.484Z,23.40
2019-03-13T01:47:23.169Z,25.32
2019-03-13T01:49:53.819Z,26.70
2019-03-13T01:52:24.518Z,26.50
2019-03-13T01:54:55.185Z,27.70
2019-03-13T01:57:25.863Z,26.20
2019-03-13T01:59:56.164Z,25.48
2019-03-13T02:02:26.791Z,25.70
2019-03-13T02:04:58.264Z,25.50
2019-03-13T02:07:28.865Z,27.02
2019-03-13T02:09:59.522Z,25.90
2019-03-13T02:12:30.019Z,25.48
2019-03-13T02:15:00.498Z,24.95
2019-03-13T02:17:31.385Z,25.60
2019-03-13T02:20:01.684Z,25.57
2019-03-13T02:22:32.320Z,25.85
2019-03-13T02:25:02.570Z,25.15
2019-03-13T02:27:33.188Z,24.80
2019-03-13T02:30:05.745Z,24.67
2019-03-13T02:32:36.926Z,24.50
2019-03-13T02:35:08.100Z,25.25
2019-03-13T02:37:38.761Z,15.78
2019-03-13T02:40:14.728Z,23.55
2019-03-13T02:42:45.630Z,23.87
2019-03-13T02:45:16.344Z,24.30
2019-03-13T02:47:46.946Z,23.40
2019-03-13T02:50:19.232Z,23.38
2019-03-13T02:52:49.974Z,22.62
2019-03-13T02:55:20.541Z,21.82
2019-03-13T02:57:51.005Z,22.75
2019-03-13T03:00:26.305Z,21.55
2019-03-13T03:03:16.256Z,21.70
2019-03-13T03:05:46.880Z,21.17
2019-03-13T03:08:17.180Z,20.60
2019-03-13T03:10:47.868Z,20.70
2019-03-13T03:13:18.596Z,20.82
2019-03-13T03:15:49.958Z,22.50
2019-03-13T03:18:20.263Z,20.32
2019-03-13T03:20:50.880Z,21.70
2019-03-13T03:23:21.209Z,20.10
2019-03-13T03:25:51.799Z,19.02
2019-03-13T03:28:22.876Z,21.97
2019-03-13T03:30:53.506Z,21.17
2019-03-13T03:33:24.180Z,21.05
2019-03-13T03:35:54.480Z,21.85
2019-03-13T03:38:24.691Z,21.95
2019-03-13T03:40:56.251Z,20.48
2019-03-13T03:43:39.426Z,21.15
2019-03-13T03:45:59.248Z,20.68
2019-03-13T03:48:29.927Z,19.27
2019-03-13T03:51:00.749Z,20.10
2019-03-13T03:53:31.404Z,19.25
2019-03-13T03:56:02.217Z,18.45
2019-03-13T03:58:32.518Z,16.55
2019-03-13T04:01:02.760Z,16.70
2019-03-13T04:03:33.666Z,16.93
2019-03-13T04:06:04.598Z,17.48
2019-03-13T04:08:37.674Z,19.85
2019-03-13T04:11:06.890Z,18.20
2019-03-13T04:13:37.454Z,17.40
2019-03-13T04:16:08.314Z,17.67
2019-03-13T04:18:38.601Z,14.83
2019-03-13T04:21:09.333Z,17.02
2019-03-13T04:23:39.992Z,17.37
2019-03-13T04:26:12.742Z,15.80
2019-03-13T04:28:42.373Z,15.72
2019-03-13T04:31:13.010Z,15.38
2019-03-13T04:33:45.593Z,16.07
2019-03-13T04:36:16.285Z,10.20
2019-03-13T04:38:46.913Z,14.23
2019-03-13T04:41:17.198Z,13.40
2019-03-13T04:43:47.443Z,12.13
2019-03-13T04:46:17.706Z,13.18
2019-03-13T04:48:47.952Z,14.83
2019-03-13T04:51:18.166Z,13.98
2019-03-13T04:53:48.374Z,11.65
2019-03-13T04:56:18.591Z,15.43
2019-03-13T04:58:48.801Z,15.53
2019-03-13T05:01:19.393Z,14.93
2019-03-13T05:03:49.672Z,13.93
2019-03-13T05:06:22.156Z,14.60
2019-03-13T05:08:55.098Z,15.75
2019-03-13T05:11:25.574Z,14.23
2019-03-13T05:13:56.172Z,13.50
2019-03-13T05:16:26.823Z,15.40
2019-03-13T05:18:57.641Z,14.15
2019-03-13T05:21:27.988Z,14.28
2019-03-13T05:23:58.327Z,13.22
2019-03-13T05:26:28.533Z,11.45
2019-03-13T05:28:58.764Z,12.23
2019-03-13T05:31:29.561Z,14.43
2019-03-13T05:33:59.775Z,12.47
2019-03-13T05:36:30.006Z,13.40
2019-03-13T05:39:00.652Z,13.80
2019-03-13T05:41:33.024Z,11.40
2019-03-13T05:44:03.658Z,14.47
2019-03-13T05:46:33.988Z,14.10
2019-03-13T05:49:04.600Z,15.65
2019-03-13T05:51:35.243Z,15.23
2019-03-13T05:54:05.563Z,14.60
2019-03-13T05:56:36.942Z,14.45
2019-03-13T05:59:07.213Z,14.85
2019-03-13T06:01:37.763Z,14.43
2019-03-13T06:04:08.057Z,13.88
2019-03-13T06:06:38.287Z,14.60
2019-03-13T06:09:08.501Z,13.53
2019-03-13T06:11:38.711Z,14.35
2019-03-13T06:14:08.943Z,13.30
2019-03-13T06:16:39.155Z,15.00
2019-03-13T06:19:09.386Z,12.13
2019-03-13T06:21:40.718Z,10.45
2019-03-13T06:24:11.294Z,11.30
2019-03-13T06:26:41.748Z,14.00
2019-03-13T06:29:12.313Z,14.65
2019-03-13T06:31:48.849Z,13.65
2019-03-13T06:34:19.149Z,12.55
2019-03-13T06:36:49.387Z,13.98
2019-03-13T06:39:20.141Z,13.00
2019-03-13T06:41:50.842Z,12.53
2019-03-13T06:44:21.472Z,13.43
2019-03-13T06:46:52.134Z,11.80
2019-03-13T06:49:22.759Z,13.75
2019-03-13T06:51:53.069Z,13.80
2019-03-13T06:54:23.287Z,14.60
2019-03-13T06:56:53.530Z,12.93
2019-03-13T06:59:25.381Z,13.95
2019-03-13T07:01:57.254Z,13.03
2019-03-13T07:04:32.161Z,13.50
2019-03-13T07:07:13.555Z,13.32
2019-03-13T07:09:48.483Z,14.40
2019-03-13T07:12:23.506Z,14.68
2019-03-13T07:15:13.767Z,14.30
2019-03-13T07:17:52.045Z,13.22
2019-03-13T07:20:32.694Z,14.03
2019-03-13T07:23:21.201Z,14.80
2019-03-13T07:25:56.316Z,12.55
2019-03-13T07:28:34.074Z,14.78
2019-03-13T07:31:11.943Z,13.80
2019-03-13T07:33:44.086Z,13.83
2019-03-13T07:36:19.060Z,14.58
2019-03-13T07:38:57.070Z,14.38
2019-03-13T07:41:29.299Z,13.85
2019-03-13T07:44:17.373Z,13.88
2019-03-13T07:46:55.598Z,12.90
2019-03-13T07:49:39.302Z,12.98
2019-03-13T07:52:17.133Z,13.18
2019-03-13T07:54:57.910Z,12.05
2019-03-13T07:57:32.509Z,13.48
2019-03-13T08:00:23.459Z,12.35
2019-03-13T08:02:56.087Z,12.53
2019-03-13T08:05:28.046Z,12.82
2019-03-13T08:08:00.326Z,12.70
2019-03-13T08:10:48.377Z,12.47
2019-03-13T08:13:32.384Z,12.30
2019-03-13T08:16:04.397Z,12.95
2019-03-13T08:18:39.531Z,11.70
2019-03-13T08:21:28.262Z,12.35
2019-03-13T08:24:16.379Z,11.33
2019-03-13T08:27:04.089Z,11.18
2019-03-13T08:29:40.184Z,11.38
2019-03-13T08:32:12.129Z,11.38
2019-03-13T08:34:47.282Z,11.10
2019-03-13T08:37:37.524Z,10.90
2019-03-13T08:40:26.560Z,11.60
2019-03-13T08:42:56.916Z,9.18
2019-03-13T08:45:35.571Z,10.82
2019-03-13T08:48:08.296Z,10.98
2019-03-13T08:50:40.887Z,10.78
2019-03-13T08:53:17.445Z,9.48
2019-03-13T08:56:04.060Z,10.55
2019-03-13T08:58:48.014Z,10.40
2019-03-13T09:01:20.328Z,10.08
2019-03-13T09:03:55.467Z,10.90
2019-03-13T09:06:33.231Z,9.68
2019-03-13T09:09:09.016Z,9.55
2019-03-13T09:11:41.488Z,9.63
2019-03-13T09:14:30.158Z,10.23
2019-03-13T09:17:20.473Z,9.68
2019-03-13T09:19:50.795Z,10.35
2019-03-13T09:22:39.118Z,8.98
2019-03-13T09:25:29.079Z,9.08
2019-03-13T09:28:17.690Z,9.75
2019-03-13T09:30:49.919Z,9.00
2019-03-13T09:33:27.510Z,8.93
2019-03-13T09:36:05.412Z,9.50
2019-03-13T09:38:43.233Z,9.50
2019-03-13T09:41:17.765Z,9.60
2019-03-13T09:44:05.754Z,8.50
2019-03-13T09:46:40.034Z,8.45
2019-03-13T09:49:24.359Z,8.73
2019-03-13T09:52:15.682Z,9.40
2019-03-13T09:54:47.652Z,8.95
2019-03-13T09:57:19.505Z,9.20
2019-03-13T09:59:51.428Z,8.25
2019-03-13T10:02:27.167Z,9.53
2019-03-13T10:05:08.241Z,9.38
2019-03-13T10:07:43.046Z,9.18
2019-03-13T10:10:25.742Z,9.20
2019-03-13T10:13:14.304Z,9.35
2019-03-13T10:15:57.893Z,8.33
2019-03-13T10:18:34.275Z,9.30
2019-03-13T10:21:12.599Z,8.70
2019-03-13T10:23:47.455Z,9.53
2019-03-13T10:26:19.322Z,9.70
2019-03-13T10:28:58.809Z,9.48
2019-03-13T10:31:31.067Z,8.93
2019-03-13T10:34:19.248Z,8.98
2019-03-13T10:37:06.995Z,9.08
2019-03-13T10:39:43.419Z,8.90
2019-03-13T10:42:15.373Z,9.60
2019-03-13T10:44:47.224Z,8.30
2019-03-13T10:47:43.475Z,8.98
2019-03-13T10:50:18.957Z,9.48
2019-03-13T10:52:58.339Z,8.93
2019-03-13T10:55:39.455Z,9.30
2019-03-13T10:58:14.362Z,9.10
2019-03-13T11:00:52.063Z,9.03
2019-03-13T11:03:22.416Z,9.83
2019-03-13T11:06:03.906Z,9.53
2019-03-13T11:08:37.701Z,9.10
2019-03-13T11:11:19.087Z,10.25
2019-03-13T11:13:55.627Z,9.03
2019-03-13T11:16:47.348Z,9.90
2019-03-13T11:19:22.142Z,11.12
2019-03-13T11:21:59.486Z,10.25
2019-03-13T11:24:33.983Z,9.83
2019-03-13T11:27:06.564Z,10.35
2019-03-13T11:29:38.501Z,10.45
2019-03-13T11:32:13.191Z,10.43
2019-03-13T11:35:01.222Z,10.48
2019-03-13T11:37:45.601Z,9.95
2019-03-13T11:40:17.466Z,10.10
2019-03-13T11:42:53.754Z,9.90
2019-03-13T11:45:27.230Z,9.68
2019-03-13T11:48:15.174Z,9.73
2019-03-13T11:51:04.234Z,9.70
2019-03-13T11:53:36.080Z,10.78
2019-03-13T11:56:13.623Z,10.48
2019-03-13T11:58:46.989Z,10.65
2019-03-13T12:01:18.833Z,11.00
2019-03-13T12:03:51.576Z,10.30
2019-03-13T12:06:41.946Z,10.50
2019-03-13T12:09:28.200Z,10.65
2019-03-13T12:12:12.423Z,10.72
2019-03-13T12:14:44.898Z,11.25
2019-03-13T12:17:26.407Z,11.48
2019-03-13T12:20:01.631Z,10.90
2019-03-13T12:22:37.985Z,11.35
2019-03-13T12:25:19.719Z,11.73
2019-03-13T12:27:52.005Z,11.88
2019-03-13T12:30:30.018Z,12.53
2019-03-13T12:33:20.022Z,12.30
2019-03-13T12:35:57.720Z,11.80
2019-03-13T12:38:30.282Z,12.30
2019-03-13T12:41:20.322Z,12.30
2019-03-13T12:43:55.293Z,12.60
2019-03-13T12:46:31.750Z,13.40
2019-03-13T12:49:06.557Z,13.00
2019-03-13T12:51:47.098Z,12.58
2019-03-13T12:54:28.077Z,13.22
2019-03-13T12:57:16.323Z,12.90
2019-03-13T12:59:54.334Z,13.62
2019-03-13T13:02:26.668Z,13.20
2019-03-13T13:05:08.069Z,14.13
2019-03-13T13:07:51.894Z,12.95
2019-03-13T13:12:56.159Z,13.55
2019-03-13T13:15:28.002Z,13.08
2019-03-13T13:18:00.221Z,13.30
2019-03-13T13:20:30.524Z,13.85
2019-03-13T13:23:01.933Z,13.45
2019-03-13T13:25:32.552Z,13.50
2019-03-13T13:28:03.253Z,13.20
2019-03-13T13:30:33.621Z,13.03
2019-03-13T13:33:04.198Z,13.13
2019-03-13T13:35:35.170Z,12.47
2019-03-13T13:38:05.873Z,12.58
2019-03-13T13:40:36.506Z,12.30
2019-03-13T13:43:07.326Z,11.63
2019-03-13T13:45:40.075Z,12.15
2019-03-13T13:48:11.429Z,11.03
2019-03-13T13:50:43.262Z,10.18
2019-03-13T13:53:13.803Z,10.03
2019-03-13T13:55:44.477Z,10.53
2019-03-13T13:58:14.803Z,9.75
2019-03-13T14:00:45.148Z,10.03
2019-03-13T14:03:15.357Z,9.60
2019-03-13T14:05:45.630Z,10.08
2019-03-13T14:08:15.849Z,10.15
2019-03-13T14:10:46.414Z,10.50
2019-03-13T14:13:17.081Z,11.22
2019-03-13T14:15:47.331Z,10.48
2019-03-13T14:18:17.904Z,10.45
2019-03-13T14:20:48.203Z,10.50
2019-03-13T14:23:18.415Z,9.45
2019-03-13T14:25:51.372Z,10.25
2019-03-13T14:28:22.749Z,8.55
2019-03-13T14:30:53.834Z,7.78
2019-03-13T14:33:24.118Z,6.83
2019-03-13T14:35:58.579Z,7.03
2019-03-13T14:40:58.598Z,7.28
2019-03-13T14:43:29.872Z,7.53
2019-03-13T14:46:00.213Z,6.55
2019-03-13T14:48:32.418Z,6.75
2019-03-13T14:51:02.870Z,7.12
2019-03-13T14:53:33.311Z,7.17
2019-03-13T14:56:04.955Z,8.20
2019-03-13T14:58:35.866Z,8.30
2019-03-13T15:01:06.156Z,8.85
2019-03-13T15:03:37.476Z,8.80
2019-03-13T15:06:08.099Z,8.33
2019-03-13T15:08:38.874Z,6.95
2019-03-13T15:11:09.158Z,6.15
2019-03-13T15:13:41.380Z,5.67
2019-03-13T15:16:12.380Z,5.67
2019-03-13T15:18:43.124Z,6.50
2019-03-13T15:21:15.695Z,7.53
2019-03-13T15:23:46.379Z,6.72
2019-03-13T15:26:21.883Z,6.95
2019-03-13T15:28:52.457Z,6.55
2019-03-13T15:31:24.388Z,6.12
2019-03-13T15:33:54.960Z,7.12
2019-03-13T15:36:25.228Z,6.20
2019-03-13T15:38:55.450Z,5.67
2019-03-13T15:41:26.095Z,4.92
2019-03-13T15:43:56.500Z,5.30
2019-03-13T15:46:27.088Z,5.00
2019-03-13T15:48:57.713Z,5.03
2019-03-13T15:51:28.054Z,5.80
2019-03-13T15:53:58.261Z,5.58
2019-03-13T15:56:28.560Z,5.53
2019-03-13T15:58:59.108Z,5.78
2019-03-13T16:01:31.615Z,5.40
2019-03-13T16:04:01.948Z,5.30
2019-03-13T16:06:32.508Z,6.00
2019-03-13T16:09:03.140Z,6.08
2019-03-13T16:11:35.060Z,7.05
2019-03-13T16:14:05.608Z,7.92
2019-03-13T16:16:36.919Z,7.87
2019-03-13T16:19:08.140Z,7.78
2019-03-13T16:21:38.363Z,8.53
2019-03-13T16:24:08.620Z,8.23
2019-03-13T16:26:39.181Z,8.68
2019-03-13T16:29:11.465Z,8.90
2019-03-13T16:31:42.233Z,8.00
2019-03-13T16:34:12.491Z,8.03
2019-03-13T16:36:42.876Z,7.47
2019-03-13T16:39:17.416Z,7.97
2019-03-13T16:41:47.783Z,7.60
2019-03-13T16:44:18.037Z,8.00
2019-03-13T16:46:49.695Z,7.80
2019-03-13T16:49:20.467Z,8.40
2019-03-13T16:51:50.748Z,9.30
2019-03-13T16:54:21.323Z,8.90
2019-03-13T16:56:51.602Z,10.23
2019-03-13T16:59:21.841Z,10.53
2019-03-13T17:01:52.052Z,10.78
2019-03-13T17:04:22.287Z,10.88
2019-03-13T17:06:52.496Z,11.35
2019-03-13T17:09:22.713Z,11.50
2019-03-13T17:11:52.941Z,11.93
2019-03-13T17:14:23.494Z,10.93
2019-03-13T17:16:54.128Z,12.13
2019-03-13T17:19:24.478Z,12.25
2019-03-13T17:21:54.717Z,12.18
2019-03-13T17:24:24.947Z,12.58
2019-03-13T17:26:55.238Z,12.25
2019-03-13T17:29:25.547Z,13.38
2019-03-13T17:31:56.122Z,13.32
2019-03-13T17:34:26.703Z,14.38
2019-03-13T17:36:57.333Z,16.10
2019-03-13T17:39:27.661Z,15.70
2019-03-13T17:41:58.297Z,16.62
2019-03-13T17:44:28.597Z,17.70
2019-03-13T17:46:58.831Z,17.77
2019-03-13T17:49:29.164Z,18.30
2019-03-13T17:51:59.471Z,17.73
2019-03-13T17:54:30.028Z,19.02
2019-03-13T17:57:00.308Z,20.15
2019-03-13T17:59:30.829Z,21.85
2019-03-13T18:02:01.039Z,23.25
2019-03-13T18:04:32.934Z,26.68
2019-03-13T18:07:03.216Z,26.80
2019-03-13T18:09:33.836Z,26.68
2019-03-13T18:12:04.241Z,23.55
2019-03-13T18:14:34.467Z,24.07
2019-03-13T18:17:10.935Z,23.70
2019-03-13T18:19:42.798Z,23.67
2019-03-13T18:22:13.861Z,22.62
2019-03-13T18:24:44.296Z,22.15
2019-03-13T18:27:14.857Z,21.82
2019-03-13T18:29:45.127Z,22.17
2019-03-13T18:32:15.926Z,22.55
2019-03-13T18:34:46.567Z,21.95
2019-03-13T18:37:16.946Z,22.40
2019-03-13T18:39:47.501Z,23.32
2019-03-13T18:42:18.182Z,23.90
2019-03-13T18:44:50.090Z,23.95
2019-03-13T18:47:20.319Z,26.17
2019-03-13T18:49:50.558Z,25.37
2019-03-13T18:52:21.195Z,25.10
2019-03-13T18:54:51.900Z,24.67
2019-03-13T18:57:22.691Z,25.05
2019-03-13T18:59:53.480Z,25.12
2019-03-13T19:02:23.794Z,25.45
2019-03-13T19:04:57.646Z,24.12
2019-03-13T19:07:27.514Z,24.27
2019-03-13T19:09:59.817Z,23.30
2019-03-13T19:12:30.445Z,22.50
2019-03-13T19:15:00.757Z,23.80
2019-03-13T19:17:31.717Z,22.67
2019-03-13T19:20:01.994Z,22.22
2019-03-13T19:22:32.579Z,21.82
2019-03-13T19:25:03.033Z,21.23
2019-03-13T19:27:33.252Z,20.72
2019-03-13T19:30:04.859Z,20.25
2019-03-13T19:32:35.072Z,20.40
2019-03-13T19:35:06.745Z,20.62
2019-03-13T19:37:37.305Z,20.30
2019-03-13T19:40:14.694Z,18.98
2019-03-13T19:42:45.341Z,19.10
2019-03-13T19:45:30.411Z,18.98
2019-03-13T19:48:01.741Z,18.80
2019-03-13T19:50:32.285Z,18.35
2019-03-13T19:53:02.523Z,19.42
2019-03-13T19:55:33.300Z,19.40
2019-03-13T19:58:03.614Z,20.17
2019-03-13T20:00:33.916Z,20.75
2019-03-13T20:03:17.453Z,21.35
2019-03-13T20:05:48.094Z,21.87
2019-03-13T20:08:19.482Z,22.50
2019-03-13T20:10:49.750Z,23.20
2019-03-13T20:13:20.054Z,22.85
2019-03-13T20:15:50.475Z,24.07
2019-03-13T20:18:20.946Z,24.95
2019-03-13T20:20:52.977Z,25.40
2019-03-13T20:23:23.259Z,26.45
2019-03-13T20:25:53.561Z,25.82
2019-03-13T20:28:24.252Z,27.77
2019-03-13T20:30:55.850Z,26.80
2019-03-13T20:33:27.042Z,26.15
2019-03-13T20:35:58.123Z,27.93
2019-03-13T20:38:28.333Z,27.25
2019-03-13T20:40:58.738Z,29.70
2019-03-13T20:43:29.024Z,27.60
2019-03-13T20:45:59.597Z,29.12
2019-03-13T20:48:30.318Z,28.90
2019-03-13T20:51:00.612Z,28.95
2019-03-13T20:53:30.842Z,27.82
2019-03-13T20:56:01.408Z,32.45
2019-03-13T20:58:32.140Z,32.20
2019-03-13T21:01:04.399Z,29.95
2019-03-13T21:03:35.507Z,31.60
2019-03-13T21:06:05.900Z,33.05
2019-03-13T21:08:38.083Z,30.08
2019-03-13T21:11:09.061Z,32.65
2019-03-13T21:13:39.407Z,31.40
2019-03-13T21:16:09.916Z,31.15
2019-03-13T21:18:41.897Z,29.87
2019-03-13T21:21:12.148Z,31.40
2019-03-13T21:23:42.875Z,31.70
2019-03-13T21:26:13.541Z,30.27
2019-03-13T21:28:43.887Z,31.62
2019-03-13T21:31:13.938Z,33.08
2019-03-13T21:33:44.235Z,28.52
2019-03-13T21:36:14.799Z,29.67
2019-03-13T21:38:45.453Z,33.70
2019-03-13T21:41:16.109Z,33.15
2019-03-13T21:43:46.402Z,33.90
2019-03-13T21:46:16.994Z,31.70
2019-03-13T21:48:47.267Z,33.70
2019-03-13T21:51:17.530Z,34.25
2019-03-13T21:53:47.812Z,34.95
2019-03-13T21:56:18.095Z,33.00
2019-03-13T21:58:48.336Z,32.20
2019-03-13T22:01:20.026Z,33.48
2019-03-13T22:03:50.900Z,36.03
2019-03-13T22:06:28.691Z,34.05
2019-03-13T22:08:54.366Z,26.62
2019-03-13T22:11:24.604Z,33.63
2019-03-13T22:13:55.166Z,34.35
2019-03-13T22:16:25.543Z,33.25
2019-03-13T22:18:56.108Z,33.13
2019-03-13T22:21:26.464Z,33.67
2019-03-13T22:23:56.627Z,33.83
2019-03-13T22:26:27.238Z,34.60
2019-03-13T22:28:57.533Z,34.43
2019-03-13T22:31:27.757Z,34.43
2019-03-13T22:33:57.967Z,35.55
2019-03-13T22:36:28.174Z,34.50
2019-03-13T22:38:58.407Z,35.00
2019-03-13T22:41:28.619Z,30.82
2019-03-13T22:43:59.234Z,35.17
2019-03-13T22:46:29.531Z,34.95
2019-03-13T22:48:59.743Z,34.58
2019-03-13T22:51:30.196Z,34.90
2019-03-13T22:54:00.745Z,33.10
2019-03-13T22:56:31.057Z,34.33
2019-03-13T22:59:01.614Z,33.67
2019-03-13T23:01:32.413Z,32.05
2019-03-13T23:04:03.225Z,34.63
2019-03-13T23:06:33.530Z,37.38
2019-03-13T23:09:05.051Z,35.10
2019-03-13T23:11:36.407Z,36.45
2019-03-13T23:14:07.033Z,36.45
2019-03-13T23:16:37.764Z,36.23
2019-03-13T23:19:08.379Z,34.75
2019-03-13T23:21:38.689Z,35.85
2019-03-13T23:24:08.970Z,35.13
2019-03-13T23:26:39.204Z,35.90
2019-03-13T23:29:09.833Z,33.88
2019-03-13T23:31:40.145Z,34.98
2019-03-13T23:34:10.715Z,36.50
2019-03-13T23:36:41.380Z,36.20
2019-03-13T23:39:12.501Z,33.00
2019-03-13T23:41:43.164Z,36.17
2019-03-13T23:44:15.120Z,35.98
2019-03-13T23:46:45.394Z,35.83
2019-03-13T23:49:15.958Z,35.83
2019-03-13T23:51:46.232Z,35.58
2019-03-13T23:54:16.467Z,36.08
2019-03-13T23:56:46.846Z,37.28
2019-03-13T23:59:17.111Z,34.65
